sensor_id;sensor_type;location;lat;lon;timestamp;temperature;humidity
2523;DHT22;1272;53.332;9.860;2022-10-16T00:01:58;13.60;99.90
2523;DHT22;1272;53.332;9.860;2022-10-16T00:04:23;13.60;99.90
2523;DHT22;1272;53.332;9.860;2022-10-16T00:06:49;13.60;99.90
2523;DHT22;1272;53.332;9.860;2022-10-16T00:09:14;13.60;99.90
2523;DHT22;1272;53.332;9.860;2022-10-16T00:11:40;13.60;99.90
2523;DHT22;1272;53.332;9.860;2022-10-16T00:14:08;13.60;99.90
2523;DHT22;1272;53.332;9.860;2022-10-16T00:16:35;13.50;99.90
2523;DHT22;1272;53.332;9.860;2022-10-16T00:19:02;13.50;99.90
2523;DHT22;1272;53.332;9.860;2022-10-16T00:21:29;13.50;99.90
2523;DHT22;1272;53.332;9.860;2022-10-16T00:23:58;13.40;99.90
2523;DHT22;1272;53.332;9.860;2022-10-16T00:26:25;13.40;99.90
2523;DHT22;1272;53.332;9.860;2022-10-16T00:28:52;13.30;99.90
2523;DHT22;1272;53.332;9.860;2022-10-16T00:31:19;13.30;99.90
2523;DHT22;1272;53.332;9.860;2022-10-16T00:33:45;13.20;99.90
2523;DHT22;1272;53.332;9.860;2022-10-16T00:36:14;13.20;99.90
2523;DHT22;1272;53.332;9.860;2022-10-16T00:38:40;13.20;99.90
2523;DHT22;1272;53.332;9.860;2022-10-16T00:41:06;13.20;99.90
2523;DHT22;1272;53.332;9.860;2022-10-16T00:43:38;13.10;99.90
2523;DHT22;1272;53.332;9.860;2022-10-16T00:46:19;13.10;99.90
2523;DHT22;1272;53.332;9.860;2022-10-16T00:49:07;13.10;99.90
2523;DHT22;1272;53.332;9.860;2022-10-16T00:51:39;13.00;99.90
2523;DHT22;1272;53.332;9.860;2022-10-16T00:54:09;13.00;99.90
2523;DHT22;1272;53.332;9.860;2022-10-16T00:56:35;13.00;99.90
2523;DHT22;1272;53.332;9.860;2022-10-16T00:59:23;13.00;99.90
2523;DHT22;1272;53.332;9.860;2022-10-16T01:01:50;13.00;99.90
2523;DHT22;1272;53.332;9.860;2022-10-16T01:04:16;13.00;99.90
2523;DHT22;1272;53.332;9.860;2022-10-16T01:09:51;13.00;99.90
2523;DHT22;1272;53.332;9.860;2022-10-16T01:15:01;12.90;99.90
2523;DHT22;1272;53.332;9.860;2022-10-16T01:17:34;12.90;99.90
2523;DHT22;1272;53.332;9.860;2022-10-16T01:28:15;12.90;99.90
2523;DHT22;1272;53.332;9.860;2022-10-16T01:30:43;12.80;99.90
2523;DHT22;1272;53.332;9.860;2022-10-16T01:33:19;12.90;99.90
2523;DHT22;1272;53.332;9.860;2022-10-16T01:35:52;12.80;99.90
2523;DHT22;1272;53.332;9.860;2022-10-16T01:38:31;12.80;99.90
2523;DHT22;1272;53.332;9.860;2022-10-16T01:41:15;12.70;99.90
2523;DHT22;1272;53.332;9.860;2022-10-16T01:43:46;12.70;99.90
2523;DHT22;1272;53.332;9.860;2022-10-16T01:46:16;12.70;99.90
2523;DHT22;1272;53.332;9.860;2022-10-16T01:48:43;12.60;99.90
2523;DHT22;1272;53.332;9.860;2022-10-16T01:51:12;12.70;99.90
2523;DHT22;1272;53.332;9.860;2022-10-16T01:53:45;12.60;99.90
2523;DHT22;1272;53.332;9.860;2022-10-16T01:56:13;12.60;99.90
2523;DHT22;1272;53.332;9.860;2022-10-16T01:58:47;12.50;99.90
2523;DHT22;1272;53.332;9.860;2022-10-16T02:01:16;12.50;99.90
2523;DHT22;1272;53.332;9.860;2022-10-16T02:03:44;12.50;99.90
2523;DHT22;1272;53.332;9.860;2022-10-16T02:06:12;12.50;99.90
2523;DHT22;1272;53.332;9.860;2022-10-16T02:08:38;12.50;99.90
2523;DHT22;1272;53.332;9.860;2022-10-16T02:11:06;12.50;99.90
2523;DHT22;1272;53.332;9.860;2022-10-16T02:13:50;12.50;99.90
2523;DHT22;1272;53.332;9.860;2022-10-16T02:16:18;12.40;99.90
2523;DHT22;1272;53.332;9.860;2022-10-16T02:18:44;12.40;99.90
2523;DHT22;1272;53.332;9.860;2022-10-16T02:24:38;12.40;99.90
2523;DHT22;1272;53.332;9.860;2022-10-16T02:27:13;12.40;99.90
2523;DHT22;1272;53.332;9.860;2022-10-16T02:29:45;12.40;99.90
2523;DHT22;1272;53.332;9.860;2022-10-16T02:32:18;12.40;99.90
2523;DHT22;1272;53.332;9.860;2022-10-16T02:34:46;12.40;99.90
2523;DHT22;1272;53.332;9.860;2022-10-16T02:37:12;12.30;99.90
2523;DHT22;1272;53.332;9.860;2022-10-16T02:39:39;12.30;99.90
2523;DHT22;1272;53.332;9.860;2022-10-16T02:42:11;12.30;99.90
2523;DHT22;1272;53.332;9.860;2022-10-16T02:44:37;12.30;99.90
2523;DHT22;1272;53.332;9.860;2022-10-16T02:47:02;12.30;99.90
2523;DHT22;1272;53.332;9.860;2022-10-16T02:49:28;12.20;99.90
2523;DHT22;1272;53.332;9.860;2022-10-16T02:51:54;12.20;99.90
2523;DHT22;1272;53.332;9.860;2022-10-16T02:54:20;12.20;99.90
2523;DHT22;1272;53.332;9.860;2022-10-16T02:56:45;12.20;99.90
2523;DHT22;1272;53.332;9.860;2022-10-16T02:59:11;12.10;99.90
2523;DHT22;1272;53.332;9.860;2022-10-16T03:01:37;12.20;99.90
2523;DHT22;1272;53.332;9.860;2022-10-16T03:04:02;12.20;99.90
2523;DHT22;1272;53.332;9.860;2022-10-16T03:06:28;12.10;99.90
2523;DHT22;1272;53.332;9.860;2022-10-16T03:08:54;12.10;99.90
2523;DHT22;1272;53.332;9.860;2022-10-16T03:11:19;12.10;99.90
2523;DHT22;1272;53.332;9.860;2022-10-16T03:13:45;12.10;99.90
2523;DHT22;1272;53.332;9.860;2022-10-16T03:16:10;12.10;99.90
2523;DHT22;1272;53.332;9.860;2022-10-16T03:18:36;12.00;99.90
2523;DHT22;1272;53.332;9.860;2022-10-16T03:21:02;12.00;99.90
2523;DHT22;1272;53.332;9.860;2022-10-16T03:23:28;12.00;99.90
2523;DHT22;1272;53.332;9.860;2022-10-16T03:25:54;12.00;99.90
2523;DHT22;1272;53.332;9.860;2022-10-16T03:28:19;12.00;99.90
2523;DHT22;1272;53.332;9.860;2022-10-16T03:30:45;12.00;99.90
2523;DHT22;1272;53.332;9.860;2022-10-16T03:33:11;12.00;99.90
2523;DHT22;1272;53.332;9.860;2022-10-16T03:35:37;12.00;99.90
2523;DHT22;1272;53.332;9.860;2022-10-16T03:38:03;11.90;99.90
2523;DHT22;1272;53.332;9.860;2022-10-16T03:40:28;11.90;99.90
2523;DHT22;1272;53.332;9.860;2022-10-16T03:42:55;11.90;99.90
2523;DHT22;1272;53.332;9.860;2022-10-16T03:45:23;12.00;99.90
2523;DHT22;1272;53.332;9.860;2022-10-16T03:47:48;12.00;99.90
2523;DHT22;1272;53.332;9.860;2022-10-16T03:50:14;12.00;99.90
2523;DHT22;1272;53.332;9.860;2022-10-16T03:52:40;12.00;99.90
2523;DHT22;1272;53.332;9.860;2022-10-16T03:55:06;12.00;99.90
2523;DHT22;1272;53.332;9.860;2022-10-16T03:57:32;12.00;99.90
2523;DHT22;1272;53.332;9.860;2022-10-16T03:59:58;12.00;99.90
2523;DHT22;1272;53.332;9.860;2022-10-16T04:02:23;12.00;99.90
2523;DHT22;1272;53.332;9.860;2022-10-16T04:04:49;12.00;99.90
2523;DHT22;1272;53.332;9.860;2022-10-16T04:07:14;11.90;99.90
2523;DHT22;1272;53.332;9.860;2022-10-16T04:09:40;11.90;99.90
2523;DHT22;1272;53.332;9.860;2022-10-16T04:12:06;11.90;99.90
2523;DHT22;1272;53.332;9.860;2022-10-16T04:14:31;11.90;99.90
2523;DHT22;1272;53.332;9.860;2022-10-16T04:16:57;11.90;99.90
2523;DHT22;1272;53.332;9.860;2022-10-16T04:19:23;11.90;99.90
2523;DHT22;1272;53.332;9.860;2022-10-16T04:21:48;11.90;99.90
2523;DHT22;1272;53.332;9.860;2022-10-16T04:24:14;11.90;99.90
2523;DHT22;1272;53.332;9.860;2022-10-16T04:26:39;11.90;99.90
2523;DHT22;1272;53.332;9.860;2022-10-16T04:29:05;11.90;99.90
2523;DHT22;1272;53.332;9.860;2022-10-16T04:31:32;11.80;99.90
2523;DHT22;1272;53.332;9.860;2022-10-16T04:33:58;11.80;99.90
2523;DHT22;1272;53.332;9.860;2022-10-16T04:36:24;11.80;99.90
2523;DHT22;1272;53.332;9.860;2022-10-16T04:38:49;11.80;99.90
2523;DHT22;1272;53.332;9.860;2022-10-16T04:41:15;11.80;99.90
2523;DHT22;1272;53.332;9.860;2022-10-16T04:43:40;11.70;99.90
2523;DHT22;1272;53.332;9.860;2022-10-16T04:46:09;11.70;99.90
2523;DHT22;1272;53.332;9.860;2022-10-16T04:48:35;11.70;99.90
2523;DHT22;1272;53.332;9.860;2022-10-16T04:51:01;11.70;99.90
2523;DHT22;1272;53.332;9.860;2022-10-16T04:53:26;11.70;99.90
2523;DHT22;1272;53.332;9.860;2022-10-16T04:55:52;11.70;99.90
2523;DHT22;1272;53.332;9.860;2022-10-16T04:58:18;11.70;99.90
2523;DHT22;1272;53.332;9.860;2022-10-16T05:00:44;11.70;99.90
2523;DHT22;1272;53.332;9.860;2022-10-16T05:03:13;11.70;99.90
2523;DHT22;1272;53.332;9.860;2022-10-16T05:05:43;11.70;99.90
2523;DHT22;1272;53.332;9.860;2022-10-16T05:08:10;11.60;99.90
2523;DHT22;1272;53.332;9.860;2022-10-16T05:10:36;11.60;99.90
2523;DHT22;1272;53.332;9.860;2022-10-16T05:13:01;11.60;99.90
2523;DHT22;1272;53.332;9.860;2022-10-16T05:15:27;11.60;99.90
2523;DHT22;1272;53.332;9.860;2022-10-16T05:17:54;11.70;99.90
2523;DHT22;1272;53.332;9.860;2022-10-16T05:20:21;11.70;99.90
2523;DHT22;1272;53.332;9.860;2022-10-16T05:22:47;11.70;99.90
2523;DHT22;1272;53.332;9.860;2022-10-16T05:25:12;11.60;99.90
2523;DHT22;1272;53.332;9.860;2022-10-16T05:27:38;11.60;99.90
2523;DHT22;1272;53.332;9.860;2022-10-16T05:30:04;11.60;99.90
2523;DHT22;1272;53.332;9.860;2022-10-16T05:32:30;11.60;99.90
2523;DHT22;1272;53.332;9.860;2022-10-16T05:34:55;11.60;99.90
2523;DHT22;1272;53.332;9.860;2022-10-16T05:37:21;11.60;99.90
2523;DHT22;1272;53.332;9.860;2022-10-16T05:39:49;11.60;99.90
2523;DHT22;1272;53.332;9.860;2022-10-16T05:42:15;11.50;99.90
2523;DHT22;1272;53.332;9.860;2022-10-16T05:44:40;11.50;99.90
2523;DHT22;1272;53.332;9.860;2022-10-16T05:47:06;11.50;99.90
2523;DHT22;1272;53.332;9.860;2022-10-16T05:49:32;11.50;99.90
2523;DHT22;1272;53.332;9.860;2022-10-16T05:51:59;11.50;99.90
2523;DHT22;1272;53.332;9.860;2022-10-16T05:54:25;11.50;99.90
2523;DHT22;1272;53.332;9.860;2022-10-16T05:56:51;11.50;99.90
2523;DHT22;1272;53.332;9.860;2022-10-16T05:59:16;11.50;99.90
2523;DHT22;1272;53.332;9.860;2022-10-16T06:01:42;11.40;99.90
2523;DHT22;1272;53.332;9.860;2022-10-16T06:04:08;11.40;99.90
2523;DHT22;1272;53.332;9.860;2022-10-16T06:06:34;11.30;99.90
2523;DHT22;1272;53.332;9.860;2022-10-16T06:09:03;11.30;99.90
2523;DHT22;1272;53.332;9.860;2022-10-16T06:11:30;11.30;99.90
2523;DHT22;1272;53.332;9.860;2022-10-16T06:13:58;11.30;99.90
2523;DHT22;1272;53.332;9.860;2022-10-16T06:16:26;11.40;99.90
2523;DHT22;1272;53.332;9.860;2022-10-16T06:18:53;11.40;99.90
2523;DHT22;1272;53.332;9.860;2022-10-16T06:21:24;11.40;99.90
2523;DHT22;1272;53.332;9.860;2022-10-16T06:23:53;11.40;99.90
2523;DHT22;1272;53.332;9.860;2022-10-16T06:26:22;11.40;99.90
2523;DHT22;1272;53.332;9.860;2022-10-16T06:28:48;11.40;99.90
2523;DHT22;1272;53.332;9.860;2022-10-16T06:31:14;11.40;99.90
2523;DHT22;1272;53.332;9.860;2022-10-16T06:33:40;11.50;99.90
2523;DHT22;1272;53.332;9.860;2022-10-16T06:36:10;11.50;99.90
2523;DHT22;1272;53.332;9.860;2022-10-16T06:38:36;11.50;99.90
2523;DHT22;1272;53.332;9.860;2022-10-16T06:41:04;11.50;99.90
2523;DHT22;1272;53.332;9.860;2022-10-16T06:43:30;11.50;99.90
2523;DHT22;1272;53.332;9.860;2022-10-16T06:46:04;11.60;99.90
2523;DHT22;1272;53.332;9.860;2022-10-16T06:48:30;11.60;99.90
2523;DHT22;1272;53.332;9.860;2022-10-16T06:51:08;11.70;99.90
2523;DHT22;1272;53.332;9.860;2022-10-16T06:53:37;11.70;99.90
2523;DHT22;1272;53.332;9.860;2022-10-16T06:56:21;11.70;99.90
2523;DHT22;1272;53.332;9.860;2022-10-16T06:58:47;11.80;99.90
2523;DHT22;1272;53.332;9.860;2022-10-16T07:01:13;11.80;99.90
2523;DHT22;1272;53.332;9.860;2022-10-16T07:03:41;11.80;99.90
2523;DHT22;1272;53.332;9.860;2022-10-16T07:06:10;11.90;99.90
2523;DHT22;1272;53.332;9.860;2022-10-16T07:08:37;11.90;99.90
2523;DHT22;1272;53.332;9.860;2022-10-16T07:11:06;12.00;99.90
2523;DHT22;1272;53.332;9.860;2022-10-16T07:13:36;12.00;99.90
2523;DHT22;1272;53.332;9.860;2022-10-16T07:18:35;12.20;99.90
2523;DHT22;1272;53.332;9.860;2022-10-16T07:21:06;12.30;99.90
2523;DHT22;1272;53.332;9.860;2022-10-16T07:23:32;12.40;99.90
2523;DHT22;1272;53.332;9.860;2022-10-16T07:25:58;12.50;99.90
2523;DHT22;1272;53.332;9.860;2022-10-16T07:28:23;12.60;99.90
2523;DHT22;1272;53.332;9.860;2022-10-16T07:30:49;12.70;99.90
2523;DHT22;1272;53.332;9.860;2022-10-16T07:33:15;12.70;99.90
2523;DHT22;1272;53.332;9.860;2022-10-16T07:35:50;12.80;99.90
2523;DHT22;1272;53.332;9.860;2022-10-16T07:38:16;12.90;99.90
2523;DHT22;1272;53.332;9.860;2022-10-16T07:40:42;13.00;99.90
2523;DHT22;1272;53.332;9.860;2022-10-16T07:43:08;13.10;99.90
2523;DHT22;1272;53.332;9.860;2022-10-16T07:45:34;13.20;99.90
2523;DHT22;1272;53.332;9.860;2022-10-16T07:47:59;13.20;99.90
2523;DHT22;1272;53.332;9.860;2022-10-16T07:50:25;13.30;99.90
2523;DHT22;1272;53.332;9.860;2022-10-16T07:52:51;13.40;99.90
2523;DHT22;1272;53.332;9.860;2022-10-16T07:55:17;13.60;99.90
2523;DHT22;1272;53.332;9.860;2022-10-16T07:57:42;13.70;99.90
2523;DHT22;1272;53.332;9.860;2022-10-16T08:00:09;13.70;99.90
2523;DHT22;1272;53.332;9.860;2022-10-16T08:02:39;13.80;99.90
2523;DHT22;1272;53.332;9.860;2022-10-16T08:05:05;13.90;99.90
2523;DHT22;1272;53.332;9.860;2022-10-16T08:07:31;14.00;99.90
2523;DHT22;1272;53.332;9.860;2022-10-16T08:09:59;14.20;99.90
2523;DHT22;1272;53.332;9.860;2022-10-16T08:12:25;14.20;99.90
2523;DHT22;1272;53.332;9.860;2022-10-16T08:14:51;14.20;99.90
2523;DHT22;1272;53.332;9.860;2022-10-16T08:17:17;14.30;99.90
2523;DHT22;1272;53.332;9.860;2022-10-16T08:19:46;14.40;99.90
2523;DHT22;1272;53.332;9.860;2022-10-16T08:22:13;14.40;99.90
2523;DHT22;1272;53.332;9.860;2022-10-16T08:24:39;14.40;99.90
2523;DHT22;1272;53.332;9.860;2022-10-16T08:27:04;14.50;99.90
2523;DHT22;1272;53.332;9.860;2022-10-16T08:29:30;14.60;99.90
2523;DHT22;1272;53.332;9.860;2022-10-16T08:31:56;14.60;99.90
2523;DHT22;1272;53.332;9.860;2022-10-16T08:34:22;14.60;99.90
2523;DHT22;1272;53.332;9.860;2022-10-16T08:36:47;14.70;99.90
2523;DHT22;1272;53.332;9.860;2022-10-16T08:39:13;14.70;99.90
2523;DHT22;1272;53.332;9.860;2022-10-16T08:44:54;14.80;99.90
2523;DHT22;1272;53.332;9.860;2022-10-16T08:50:17;14.80;99.90
2523;DHT22;1272;53.332;9.860;2022-10-16T08:52:44;14.80;99.90
2523;DHT22;1272;53.332;9.860;2022-10-16T08:55:43;14.80;99.90
2523;DHT22;1272;53.332;9.860;2022-10-16T08:58:13;14.80;99.90
2523;DHT22;1272;53.332;9.860;2022-10-16T09:00:39;15.00;99.90
2523;DHT22;1272;53.332;9.860;2022-10-16T09:06:01;15.10;99.90
2523;DHT22;1272;53.332;9.860;2022-10-16T09:11:07;15.10;99.90
2523;DHT22;1272;53.332;9.860;2022-10-16T09:13:57;15.10;99.90
2523;DHT22;1272;53.332;9.860;2022-10-16T09:19:13;15.40;99.90
2523;DHT22;1272;53.332;9.860;2022-10-16T09:21:43;15.60;99.90
2523;DHT22;1272;53.332;9.860;2022-10-16T09:24:16;15.60;99.90
2523;DHT22;1272;53.332;9.860;2022-10-16T09:26:43;15.60;98.90
2523;DHT22;1272;53.332;9.860;2022-10-16T09:29:15;15.60;49.70
2523;DHT22;1272;53.332;9.860;2022-10-16T09:31:42;15.60;3.60
2523;DHT22;1272;53.332;9.860;2022-10-16T09:34:39;15.60;1.00
2523;DHT22;1272;53.332;9.860;2022-10-16T09:37:11;15.70;9.40
2523;DHT22;1272;53.332;9.860;2022-10-16T09:39:48;15.80;6.70
2523;DHT22;1272;53.332;9.860;2022-10-16T09:42:19;16.00;1.00
2523;DHT22;1272;53.332;9.860;2022-10-16T09:44:50;16.20;1.00
2523;DHT22;1272;53.332;9.860;2022-10-16T09:47:22;16.40;1.00
2523;DHT22;1272;53.332;9.860;2022-10-16T09:49:57;16.30;1.00
2523;DHT22;1272;53.332;9.860;2022-10-16T09:52:25;16.30;99.90
2523;DHT22;1272;53.332;9.860;2022-10-16T09:54:52;16.30;1.00
2523;DHT22;1272;53.332;9.860;2022-10-16T09:57:19;16.30;99.90
2523;DHT22;1272;53.332;9.860;2022-10-16T09:59:50;16.30;99.90
2523;DHT22;1272;53.332;9.860;2022-10-16T10:02:19;16.40;99.90
2523;DHT22;1272;53.332;9.860;2022-10-16T10:04:51;16.50;99.90
2523;DHT22;1272;53.332;9.860;2022-10-16T10:07:24;16.60;1.00
2523;DHT22;1272;53.332;9.860;2022-10-16T10:09:51;16.70;99.90
2523;DHT22;1272;53.332;9.860;2022-10-16T10:12:28;16.70;43.00
2523;DHT22;1272;53.332;9.860;2022-10-16T10:15:02;16.80;99.90
2523;DHT22;1272;53.332;9.860;2022-10-16T10:17:29;17.00;99.90
2523;DHT22;1272;53.332;9.860;2022-10-16T10:22:44;17.10;99.90
2523;DHT22;1272;53.332;9.860;2022-10-16T10:44:20;17.70;1.00
2523;DHT22;1272;53.332;9.860;2022-10-16T10:47:04;17.70;1.00
2523;DHT22;1272;53.332;9.860;2022-10-16T10:58:04;17.80;99.90
2523;DHT22;1272;53.332;9.860;2022-10-16T11:03:33;18.00;1.00
2523;DHT22;1272;53.332;9.860;2022-10-16T11:06:15;18.00;1.00
2523;DHT22;1272;53.332;9.860;2022-10-16T11:08:49;17.90;99.90
2523;DHT22;1272;53.332;9.860;2022-10-16T11:11:24;18.00;99.90
2523;DHT22;1272;53.332;9.860;2022-10-16T11:13:59;18.10;1.00
2523;DHT22;1272;53.332;9.860;2022-10-16T11:16:33;17.90;1.00
2523;DHT22;1272;53.332;9.860;2022-10-16T11:22:01;18.00;42.90
2523;DHT22;1272;53.332;9.860;2022-10-16T11:24:51;18.20;1.00
2523;DHT22;1272;53.332;9.860;2022-10-16T11:27:34;18.30;1.00
2523;DHT22;1272;53.332;9.860;2022-10-16T11:30:03;18.20;1.00
2523;DHT22;1272;53.332;9.860;2022-10-16T11:33:04;18.30;1.00
2523;DHT22;1272;53.332;9.860;2022-10-16T11:35:44;18.40;1.00
2523;DHT22;1272;53.332;9.860;2022-10-16T11:40:48;18.20;1.00
2523;DHT22;1272;53.332;9.860;2022-10-16T11:45:52;18.00;1.00
2523;DHT22;1272;53.332;9.860;2022-10-16T11:48:42;18.10;1.00
2523;DHT22;1272;53.332;9.860;2022-10-16T11:53:53;18.50;99.90
2523;DHT22;1272;53.332;9.860;2022-10-16T11:56:21;18.60;99.90
2523;DHT22;1272;53.332;9.860;2022-10-16T11:59:06;18.50;99.90
2523;DHT22;1272;53.332;9.860;2022-10-16T12:01:47;18.40;99.90
2523;DHT22;1272;53.332;9.860;2022-10-16T12:04:41;18.40;99.90
2523;DHT22;1272;53.332;9.860;2022-10-16T12:07:20;18.40;99.90
2523;DHT22;1272;53.332;9.860;2022-10-16T12:09:47;18.40;99.90
2523;DHT22;1272;53.332;9.860;2022-10-16T12:12:37;18.40;99.90
2523;DHT22;1272;53.332;9.860;2022-10-16T12:15:25;18.40;99.90
2523;DHT22;1272;53.332;9.860;2022-10-16T12:17:51;18.50;99.90
2523;DHT22;1272;53.332;9.860;2022-10-16T12:23:00;18.60;99.90
2523;DHT22;1272;53.332;9.860;2022-10-16T12:25:27;18.70;99.90
2523;DHT22;1272;53.332;9.860;2022-10-16T12:28:05;18.60;99.90
2523;DHT22;1272;53.332;9.860;2022-10-16T12:30:35;18.60;99.90
2523;DHT22;1272;53.332;9.860;2022-10-16T12:35:46;18.60;1.00
2523;DHT22;1272;53.332;9.860;2022-10-16T12:38:20;18.60;1.00
2523;DHT22;1272;53.332;9.860;2022-10-16T12:41:04;18.50;1.00
2523;DHT22;1272;53.332;9.860;2022-10-16T12:43:39;18.30;54.90
2523;DHT22;1272;53.332;9.860;2022-10-16T12:48:41;18.40;99.90
2523;DHT22;1272;53.332;9.860;2022-10-16T12:51:24;18.50;99.90
2523;DHT22;1272;53.332;9.860;2022-10-16T12:54:12;18.50;99.90
2523;DHT22;1272;53.332;9.860;2022-10-16T13:02:39;17.90;99.90
2523;DHT22;1272;53.332;9.860;2022-10-16T13:05:26;17.80;99.90
2523;DHT22;1272;53.332;9.860;2022-10-16T13:16:48;17.50;99.90
2523;DHT22;1272;53.332;9.860;2022-10-16T13:19:34;17.40;99.90
2523;DHT22;1272;53.332;9.860;2022-10-16T13:25:13;17.40;99.90
2523;DHT22;1272;53.332;9.860;2022-10-16T13:27:50;17.40;99.90
2523;DHT22;1272;53.332;9.860;2022-10-16T13:30:23;17.50;99.90
2523;DHT22;1272;53.332;9.860;2022-10-16T13:35:35;18.00;99.90
2523;DHT22;1272;53.332;9.860;2022-10-16T13:38:16;18.30;99.90
2523;DHT22;1272;53.332;9.860;2022-10-16T13:41:15;18.60;57.80
2523;DHT22;1272;53.332;9.860;2022-10-16T13:43:52;18.80;1.00
2523;DHT22;1272;53.332;9.860;2022-10-16T13:46:20;18.70;1.00
2523;DHT22;1272;53.332;9.860;2022-10-16T13:48:59;18.50;1.00
2523;DHT22;1272;53.332;9.860;2022-10-16T13:51:26;18.60;1.00
2523;DHT22;1272;53.332;9.860;2022-10-16T13:53:55;18.60;1.00
2523;DHT22;1272;53.332;9.860;2022-10-16T13:56:25;18.50;1.00
2523;DHT22;1272;53.332;9.860;2022-10-16T13:59:06;18.40;1.00
2523;DHT22;1272;53.332;9.860;2022-10-16T14:01:41;18.20;1.00
2523;DHT22;1272;53.332;9.860;2022-10-16T14:04:11;18.10;1.00
2523;DHT22;1272;53.332;9.860;2022-10-16T14:06:41;18.10;1.00
2523;DHT22;1272;53.332;9.860;2022-10-16T14:09:28;18.00;1.00
2523;DHT22;1272;53.332;9.860;2022-10-16T14:12:08;18.00;1.00
2523;DHT22;1272;53.332;9.860;2022-10-16T14:14:46;18.00;1.00
2523;DHT22;1272;53.332;9.860;2022-10-16T14:17:27;18.10;1.00
2523;DHT22;1272;53.332;9.860;2022-10-16T14:19:55;18.30;99.90
2523;DHT22;1272;53.332;9.860;2022-10-16T14:24:56;18.50;99.90
2523;DHT22;1272;53.332;9.860;2022-10-16T14:27:33;18.50;99.90
2523;DHT22;1272;53.332;9.860;2022-10-16T14:32:59;18.60;99.90
2523;DHT22;1272;53.332;9.860;2022-10-16T14:35:34;18.50;99.90
2523;DHT22;1272;53.332;9.860;2022-10-16T14:38:02;18.50;99.90
2523;DHT22;1272;53.332;9.860;2022-10-16T14:40:31;18.50;99.90
2523;DHT22;1272;53.332;9.860;2022-10-16T14:43:01;18.50;99.90
2523;DHT22;1272;53.332;9.860;2022-10-16T14:45:30;18.40;99.90
2523;DHT22;1272;53.332;9.860;2022-10-16T14:48:14;18.20;99.90
2523;DHT22;1272;53.332;9.860;2022-10-16T14:50:42;18.20;99.90
2523;DHT22;1272;53.332;9.860;2022-10-16T14:53:11;18.20;99.90
2523;DHT22;1272;53.332;9.860;2022-10-16T14:55:38;18.20;99.90
2523;DHT22;1272;53.332;9.860;2022-10-16T14:58:04;18.20;99.90
2523;DHT22;1272;53.332;9.860;2022-10-16T15:00:32;18.20;99.90
2523;DHT22;1272;53.332;9.860;2022-10-16T15:02:58;18.10;99.90
2523;DHT22;1272;53.332;9.860;2022-10-16T15:05:26;18.00;1.00
2523;DHT22;1272;53.332;9.860;2022-10-16T15:07:53;18.00;99.90
2523;DHT22;1272;53.332;9.860;2022-10-16T15:10:23;18.00;99.90
2523;DHT22;1272;53.332;9.860;2022-10-16T15:12:49;17.90;1.00
2523;DHT22;1272;53.332;9.860;2022-10-16T15:17:53;17.80;1.00
2523;DHT22;1272;53.332;9.860;2022-10-16T15:20:23;17.70;1.00
2523;DHT22;1272;53.332;9.860;2022-10-16T15:22:49;17.60;1.00
2523;DHT22;1272;53.332;9.860;2022-10-16T15:25:34;17.50;1.00
2523;DHT22;1272;53.332;9.860;2022-10-16T15:28:05;17.50;1.00
2523;DHT22;1272;53.332;9.860;2022-10-16T15:30:31;17.40;1.00
2523;DHT22;1272;53.332;9.860;2022-10-16T15:32:57;17.30;1.00
2523;DHT22;1272;53.332;9.860;2022-10-16T15:35:22;17.30;1.00
2523;DHT22;1272;53.332;9.860;2022-10-16T15:37:51;17.30;1.00
2523;DHT22;1272;53.332;9.860;2022-10-16T15:40:18;17.20;1.00
2523;DHT22;1272;53.332;9.860;2022-10-16T15:42:44;17.10;1.00
2523;DHT22;1272;53.332;9.860;2022-10-16T15:45:11;17.00;1.00
2523;DHT22;1272;53.332;9.860;2022-10-16T15:47:37;16.90;25.70
2523;DHT22;1272;53.332;9.860;2022-10-16T15:50:03;16.80;59.20
2523;DHT22;1272;53.332;9.860;2022-10-16T15:52:29;16.70;99.90
2523;DHT22;1272;53.332;9.860;2022-10-16T15:54:57;16.60;99.90
2523;DHT22;1272;53.332;9.860;2022-10-16T15:57:23;16.50;99.90
2523;DHT22;1272;53.332;9.860;2022-10-16T15:59:49;16.40;1.00
2523;DHT22;1272;53.332;9.860;2022-10-16T16:02:15;16.20;1.00
2523;DHT22;1272;53.332;9.860;2022-10-16T16:04:40;16.10;75.50
2523;DHT22;1272;53.332;9.860;2022-10-16T16:07:06;16.00;99.90
2523;DHT22;1272;53.332;9.860;2022-10-16T16:09:35;15.80;99.90
2523;DHT22;1272;53.332;9.860;2022-10-16T16:12:00;15.70;99.90
2523;DHT22;1272;53.332;9.860;2022-10-16T16:14:27;15.50;1.00
2523;DHT22;1272;53.332;9.860;2022-10-16T16:16:56;15.40;1.00
2523;DHT22;1272;53.332;9.860;2022-10-16T16:19:23;15.20;99.90
2523;DHT22;1272;53.332;9.860;2022-10-16T16:21:49;15.10;99.90
2523;DHT22;1272;53.332;9.860;2022-10-16T16:24:15;15.00;99.90
2523;DHT22;1272;53.332;9.860;2022-10-16T16:26:41;14.90;1.00
2523;DHT22;1272;53.332;9.860;2022-10-16T16:29:13;14.70;7.00
2523;DHT22;1272;53.332;9.860;2022-10-16T16:31:39;14.70;88.80
2523;DHT22;1272;53.332;9.860;2022-10-16T16:34:06;14.60;99.90
2523;DHT22;1272;53.332;9.860;2022-10-16T16:36:32;14.40;1.00
2523;DHT22;1272;53.332;9.860;2022-10-16T16:38:57;14.30;99.90
2523;DHT22;1272;53.332;9.860;2022-10-16T16:41:26;14.20;1.00
2523;DHT22;1272;53.332;9.860;2022-10-16T16:43:53;14.20;1.00
2523;DHT22;1272;53.332;9.860;2022-10-16T16:46:20;14.10;1.00
2523;DHT22;1272;53.332;9.860;2022-10-16T16:48:46;14.00;99.90
2523;DHT22;1272;53.332;9.860;2022-10-16T16:51:14;13.90;99.90
2523;DHT22;1272;53.332;9.860;2022-10-16T16:53:46;13.80;1.00
2523;DHT22;1272;53.332;9.860;2022-10-16T16:56:12;13.70;99.90
2523;DHT22;1272;53.332;9.860;2022-10-16T16:58:38;13.60;1.00
2523;DHT22;1272;53.332;9.860;2022-10-16T17:01:09;13.50;1.00
2523;DHT22;1272;53.332;9.860;2022-10-16T17:03:35;13.40;1.00
2523;DHT22;1272;53.332;9.860;2022-10-16T17:06:04;13.30;99.90
2523;DHT22;1272;53.332;9.860;2022-10-16T17:08:30;13.20;99.90
2523;DHT22;1272;53.332;9.860;2022-10-16T17:10:57;13.10;99.90
2523;DHT22;1272;53.332;9.860;2022-10-16T17:13:24;13.10;1.00
2523;DHT22;1272;53.332;9.860;2022-10-16T17:15:52;13.00;1.00
2523;DHT22;1272;53.332;9.860;2022-10-16T17:18:19;13.00;1.00
2523;DHT22;1272;53.332;9.860;2022-10-16T17:20:45;12.90;1.00
2523;DHT22;1272;53.332;9.860;2022-10-16T17:23:11;12.80;1.00
2523;DHT22;1272;53.332;9.860;2022-10-16T17:25:38;12.80;1.00
2523;DHT22;1272;53.332;9.860;2022-10-16T17:28:05;12.70;1.00
2523;DHT22;1272;53.332;9.860;2022-10-16T17:30:31;12.60;1.00
2523;DHT22;1272;53.332;9.860;2022-10-16T17:32:58;12.50;1.00
2523;DHT22;1272;53.332;9.860;2022-10-16T17:35:24;12.50;1.00
2523;DHT22;1272;53.332;9.860;2022-10-16T17:37:51;12.40;1.00
2523;DHT22;1272;53.332;9.860;2022-10-16T17:40:17;12.30;1.00
2523;DHT22;1272;53.332;9.860;2022-10-16T17:42:43;12.30;1.00
2523;DHT22;1272;53.332;9.860;2022-10-16T17:45:09;12.20;1.00
2523;DHT22;1272;53.332;9.860;2022-10-16T17:47:34;12.20;1.40
2523;DHT22;1272;53.332;9.860;2022-10-16T17:50:02;12.10;1.00
2523;DHT22;1272;53.332;9.860;2022-10-16T17:52:27;11.90;6.80
2523;DHT22;1272;53.332;9.860;2022-10-16T17:54:53;11.70;99.90
2523;DHT22;1272;53.332;9.860;2022-10-16T17:57:22;11.60;99.90
2523;DHT22;1272;53.332;9.860;2022-10-16T17:59:48;11.50;99.90
2523;DHT22;1272;53.332;9.860;2022-10-16T18:02:14;11.40;99.90
2523;DHT22;1272;53.332;9.860;2022-10-16T18:04:39;11.40;99.90
2523;DHT22;1272;53.332;9.860;2022-10-16T18:07:08;11.40;99.90
2523;DHT22;1272;53.332;9.860;2022-10-16T18:09:33;11.40;99.90
2523;DHT22;1272;53.332;9.860;2022-10-16T18:12:00;11.40;99.90
2523;DHT22;1272;53.332;9.860;2022-10-16T18:14:27;11.30;99.90